Time,TemperatureF,DewpointF,PressureIn,WindDirection,WindDirectionDegrees,WindSpeedMPH,WindSpeedGustMPH,Humidity,HourlyPrecipIn,Conditions,Clouds,dailyrainin,SoftwareType,DateUTC
2013-10-28 00:02:00,45.6,34.9,29.58,ESE,109,15.2,18.4,66,0.00,RA,,0.00,WeatherDisplay:10.37,2013-10-28 08:02:00,
2013-10-28 00:07:00,45.7,35.0,29.58,SE,130,10.6,13.7,66,0.00,RA,,0.00,WeatherDisplay:10.37,2013-10-28 08:07:00,
2013-10-28 00:12:00,45.3,35.4,29.58,SE,140,14.9,20.7,68,0.00,CLR,,0.00,WeatherDisplay:10.37,2013-10-28 08:12:00,
2013-10-28 00:17:00,45.4,35.5,29.59,SSE,168,11.9,16.1,68,0.00,CLR,,0.00,WeatherDisplay:10.37,2013-10-28 08:17:00,
2013-10-28 00:22:00,45.1,35.2,29.60,ESE,120,10.0,13.9,68,0.00,CLR,,0.00,WeatherDisplay:10.37,2013-10-28 08:22:00,
2013-10-28 00:27:00,44.8,35.2,29.60,ESE,119,14.7,18.4,69,0.00,CLR,,0.00,WeatherDisplay:10.37,2013-10-28 08:27:00,
2013-10-28 00:32:00,45.3,36.1,29.59,ESE,121,9.2,15.0,70,0.00,CLR,,0.00,WeatherDisplay:10.37,2013-10-28 08:32:00,
2013-10-28 00:37:00,45.0,36.5,29.60,East,86,8.3,12.7,72,0.00,CLR,,0.00,WeatherDisplay:10.37,2013-10-28 08:37:00,
2013-10-28 00:42:00,44.5,36.0,29.60,ESE,104,5.7,11.5,72,0.00,CLR,,0.00,WeatherDisplay:10.37,2013-10-28 08:42:00,
2013-10-28 00:47:00,44.5,36.4,29.60,SE,130,7.3,9.2,73,0.00,CLR,,0.00,WeatherDisplay:10.37,2013-10-28 08:47:00,
2013-10-28 00:52:00,44.5,36.4,29.61,SE,128,9.9,12.7,73,0.00,CLR,,0.00,WeatherDisplay:10.37,2013-10-28 08:52:00,
2013-10-28 00:57:00,43.9,36.1,29.59,ESE,120,10.3,12.7,74,0.00,CLR,,0.00,WeatherDisplay:10.37,2013-10-28 08:57:00,
2013-10-28 01:02:00,44.0,36.2,29.59,SE,126,8.0,10.4,74,0.00,CLR,,0.00,WeatherDisplay:10.37,2013-10-28 09:02:00,
2013-10-28 01:07:00,43.9,36.5,29.59,ESE,110,13.0,15.0,75,0.00,CLR,,0.00,WeatherDisplay:10.37,2013-10-28 09:07:00,
2013-10-28 01:12:00,43.7,36.3,29.60,SE,124,11.8,17.3,75,0.00,CLR,,0.00,WeatherDisplay:10.37,2013-10-28 09:12:00,
2013-10-28 01:17:00,44.2,36.8,29.60,ESE,117,11.9,15.6,75,0.00,CLR,,0.00,WeatherDisplay:10.37,2013-10-28 09:17:00,
2013-10-28 01:22:00,44.2,36.8,29.60,SE,137,13.4,16.1,75,0.00,CLR,,0.00,WeatherDisplay:10.37,2013-10-28 09:22:00,
2013-10-28 01:27:00,44.1,36.7,29.60,SE,137,9.0,11.5,75,0.00,CLR,,0.00,WeatherDisplay:10.37,2013-10-28 09:27:00,
2013-10-28 01:32:00,44.0,36.6,29.60,SE,127,5.7,6.9,75,0.00,CLR,,0.00,WeatherDisplay:10.37,2013-10-28 09:32:00,
2013-10-28 01:37:00,44.0,36.9,29.59,SE,127,7.6,8.3,76,0.00,CLR,,0.00,WeatherDisplay:10.37,2013-10-28 09:37:00,
2013-10-28 01:42:00,43.9,36.8,29.59,SE,128,5.4,9.2,76,0.00,CLR,,0.00,WeatherDisplay:10.37,2013-10-28 09:42:00,
2013-10-28 01:47:00,43.8,36.7,29.58,NNE,32,4.2,6.9,76,0.00,CLR,,0.00,WeatherDisplay:10.37,2013-10-28 09:47:00,
2013-10-28 01:52:00,43.4,36.3,29.57,East,99,8.2,8.2,76,0.00,CLR,,0.00,WeatherDisplay:10.37,2013-10-28 09:52:00,
2013-10-28 01:57:00,43.6,36.5,29.57,ESE,123,5.6,6.8,76,0.00,CLR,,0.01,WeatherDisplay:10.37,2013-10-28 09:57:00,
2013-10-28 02:02:00,43.3,36.2,29.55,East,100,5.4,8.1,76,0.01,RA,,0.01,WeatherDisplay:10.37,2013-10-28 10:02:00,
2013-10-28 02:07:00,43.7,36.6,29.56,ESE,107,7.5,10.4,76,0.01,RA,,0.01,WeatherDisplay:10.37,2013-10-28 10:07:00,
2013-10-28 02:12:00,43.3,36.2,29.56,SE,127,5.7,10.4,76,0.01,CLR,,0.01,WeatherDisplay:10.37,2013-10-28 10:12:00,
2013-10-28 02:17:00,43.6,36.5,29.55,ESE,112,8.9,10.4,76,0.01,CLR,,0.01,WeatherDisplay:10.37,2013-10-28 10:17:00,
2013-10-28 02:22:00,43.6,36.5,29.54,ENE,65,2.3,9.2,76,0.01,CLR,,0.01,WeatherDisplay:10.37,2013-10-28 10:22:00,
2013-10-28 02:27:00,43.2,36.1,29.54,ESE,106,8.5,11.5,76,0.02,RA,,0.02,WeatherDisplay:10.37,2013-10-28 10:27:00,
2013-10-28 02:33:00,43.5,36.4,29.51,ESE,106,13.3,17.3,76,0.02,RA,,0.02,WeatherDisplay:10.37,2013-10-28 10:33:00,
2013-10-28 02:38:00,43.5,36.1,29.51,SE,126,14.3,18.4,75,0.03,RA,,0.03,WeatherDisplay:10.37,2013-10-28 10:38:00,
2013-10-28 02:43:00,43.9,36.1,29.51,SE,130,11.9,18.8,74,0.03,RA,,0.03,WeatherDisplay:10.37,2013-10-28 10:43:00,
2013-10-28 02:48:00,44.9,37.1,29.52,SE,140,13.5,17.3,74,0.03,CLR,,0.03,WeatherDisplay:10.37,2013-10-28 10:48:00,
2013-10-28 02:53:00,44.3,36.5,29.51,ESE,112,14.0,19.6,74,0.03,CLR,,0.03,WeatherDisplay:10.37,2013-10-28 10:53:00,
2013-10-28 02:58:00,44.6,36.5,29.50,ESE,103,13.5,20.7,73,0.02,CLR,,0.03,WeatherDisplay:10.37,2013-10-28 10:58:00,
2013-10-28 03:03:00,44.4,35.9,29.51,SE,136,11.5,14.0,72,0.02,CLR,,0.03,WeatherDisplay:10.37,2013-10-28 11:03:00,
2013-10-28 03:08:00,44.6,35.8,29.50,ESE,107,13.8,23.0,71,0.02,CLR,,0.03,WeatherDisplay:10.37,2013-10-28 11:08:00,
2013-10-28 03:13:00,45.4,35.5,29.50,ESE,116,18.1,21.9,68,0.02,CLR,,0.03,WeatherDisplay:10.37,2013-10-28 11:13:00,
2013-10-28 03:18:00,46.7,35.2,29.49,ESE,102,19.8,28.8,64,0.02,CLR,,0.03,WeatherDisplay:10.37,2013-10-28 11:18:00,
2013-10-28 03:23:00,46.7,35.2,29.47,East,96,21.2,27.6,64,0.02,CLR,,0.03,WeatherDisplay:10.37,2013-10-28 11:23:00,
2013-10-28 03:28:00,46.8,34.9,29.47,ESE,114,14.6,27.6,63,0.01,CLR,,0.03,WeatherDisplay:10.37,2013-10-28 11:28:00,
2013-10-28 03:33:00,46.9,35.4,29.48,East,92,19.1,27.6,64,0.01,CLR,,0.03,WeatherDisplay:10.37,2013-10-28 11:33:00,
2013-10-28 03:38:00,47.5,34.7,29.48,East,99,23.0,29.9,61,0.00,CLR,,0.03,WeatherDisplay:10.37,2013-10-28 11:38:00,
2013-10-28 03:43:00,48.1,34.9,29.47,ESE,107,20.6,30.1,60,0.00,CLR,,0.03,WeatherDisplay:10.37,2013-10-28 11:43:00,
2013-10-28 03:48:00,48.4,34.3,29.47,ESE,112,26.6,38.0,58,0.00,CLR,,0.03,WeatherDisplay:10.37,2013-10-28 11:48:00,
2013-10-28 03:53:00,49.1,35.4,29.47,SE,130,17.9,23.0,59,0.00,CLR,,0.03,WeatherDisplay:10.37,2013-10-28 11:53:00,
2013-10-28 03:58:00,48.8,34.2,29.47,East,97,19.0,28.8,57,0.00,CLR,,0.03,WeatherDisplay:10.37,2013-10-28 11:58:00,
2013-10-28 04:03:00,49.4,34.3,29.48,SE,130,13.1,23.0,56,0.00,CLR,,0.03,WeatherDisplay:10.37,2013-10-28 12:03:00,
2013-10-28 04:08:00,49.6,34.5,29.48,SE,130,21.4,29.9,56,0.00,CLR,,0.03,WeatherDisplay:10.37,2013-10-28 12:08:00,
2013-10-28 04:13:00,49.9,34.8,29.48,ESE,117,15.0,18.4,56,0.00,CLR,,0.03,WeatherDisplay:10.37,2013-10-28 12:13:00,
2013-10-28 04:18:00,49.6,34.5,29.48,ESE,119,14.3,21.9,56,0.00,CLR,,0.03,WeatherDisplay:10.37,2013-10-28 12:18:00,
2013-10-28 04:23:00,49.9,34.4,29.48,SE,128,18.4,33.4,55,0.00,CLR,,0.03,WeatherDisplay:10.37,2013-10-28 12:23:00,
2013-10-28 04:28:00,50.1,34.5,29.47,ESE,117,21.1,34.5,55,0.00,CLR,,0.03,WeatherDisplay:10.37,2013-10-28 12:28:00,
2013-10-28 04:33:00,50.2,35.1,29.47,East,88,17.6,26.5,56,0.00,CLR,,0.03,WeatherDisplay:10.37,2013-10-28 12:33:00,
2013-10-28 04:38:00,50.3,34.7,29.47,ENE,65,20.5,28.8,55,0.00,CLR,,0.03,WeatherDisplay:10.37,2013-10-28 12:38:00,
2013-10-28 04:43:00,50.2,35.1,29.48,ESE,107,14.4,20.7,56,0.00,CLR,,0.03,WeatherDisplay:10.37,2013-10-28 12:43:00,
2013-10-28 04:48:00,50.1,35.0,29.47,ESE,102,19.9,27.6,56,0.00,CLR,,0.03,WeatherDisplay:10.37,2013-10-28 12:48:00,
2013-10-28 04:53:00,50.3,34.7,29.46,ENE,75,20.7,30.6,55,0.00,CLR,,0.03,WeatherDisplay:10.37,2013-10-28 12:53:00,
2013-10-28 04:58:00,50.2,35.1,29.45,East,90,23.5,35.7,56,0.00,CLR,,0.03,WeatherDisplay:10.37,2013-10-28 12:58:00,
2013-10-28 05:03:00,50.1,35.0,29.45,ESE,114,17.1,23.0,56,0.00,CLR,,0.03,WeatherDisplay:10.37,2013-10-28 13:03:00,
2013-10-28 05:08:00,50.1,35.0,29.45,East,90,22.6,32.2,56,0.00,CLR,,0.03,WeatherDisplay:10.37,2013-10-28 13:08:00,
2013-10-28 05:13:00,50.1,35.0,29.44,ESE,113,19.5,34.4,56,0.00,CLR,,0.03,WeatherDisplay:10.37,2013-10-28 13:13:00,
2013-10-28 05:18:00,49.7,34.6,29.44,SE,124,20.7,33.4,56,0.00,CLR,,0.03,WeatherDisplay:10.37,2013-10-28 13:18:00,
2013-10-28 05:23:00,49.8,35.2,29.43,SE,128,20.0,28.8,57,0.00,CLR,,0.03,WeatherDisplay:10.37,2013-10-28 13:23:00,
2013-10-28 05:28:00,49.7,34.6,29.42,ESE,103,22.0,34.5,56,0.00,CLR,,0.03,WeatherDisplay:10.37,2013-10-28 13:28:00,
2013-10-28 05:33:00,49.8,35.2,29.42,East,89,19.8,26.5,57,0.00,CLR,,0.03,WeatherDisplay:10.37,2013-10-28 13:33:00,
2013-10-28 05:38:00,49.7,34.6,29.42,East,90,18.2,26.5,56,0.00,CLR,,0.03,WeatherDisplay:10.37,2013-10-28 13:38:00,
2013-10-28 05:43:00,49.5,34.4,29.40,East,95,19.0,23.0,56,0.00,CLR,,0.03,WeatherDisplay:10.37,2013-10-28 13:43:00,
2013-10-28 05:48:00,50.0,34.9,29.40,ESE,109,26.4,35.7,56,0.00,CLR,,0.03,WeatherDisplay:10.37,2013-10-28 13:48:00,
2013-10-28 05:53:00,50.0,34.5,29.40,East,92,24.3,35.7,55,0.00,CLR,,0.03,WeatherDisplay:10.37,2013-10-28 13:53:00,
2013-10-28 05:58:00,50.3,34.3,29.39,ENE,65,23.8,31.8,54,0.00,CLR,,0.03,WeatherDisplay:10.37,2013-10-28 13:58:00,
2013-10-28 06:03:00,50.4,34.4,29.38,ESE,112,24.2,32.2,54,0.00,CLR,,0.03,WeatherDisplay:10.37,2013-10-28 14:03:00,
2013-10-28 06:08:00,50.6,35.0,29.38,SE,136,19.9,26.5,55,0.00,CLR,,0.03,WeatherDisplay:10.37,2013-10-28 14:08:00,
2013-10-28 06:13:00,50.7,34.6,29.39,East,85,21.4,29.9,54,0.00,CLR,,0.03,WeatherDisplay:10.37,2013-10-28 14:13:00,
2013-10-28 06:18:00,50.8,34.3,29.38,SE,126,24.9,32.2,53,0.00,CLR,,0.03,WeatherDisplay:10.37,2013-10-28 14:18:00,
2013-10-28 06:23:00,50.6,34.6,29.38,ESE,104,20.5,27.6,54,0.00,CLR,,0.03,WeatherDisplay:10.37,2013-10-28 14:23:00,
2013-10-28 06:28:00,51.0,34.5,29.37,ESE,106,17.0,24.2,53,0.00,CLR,,0.03,WeatherDisplay:10.37,2013-10-28 14:28:00,
2013-10-28 06:33:00,50.8,34.3,29.38,East,82,24.0,25.0,53,0.00,CLR,,0.03,WeatherDisplay:10.37,2013-10-28 14:33:00,
2013-10-28 06:38:00,51.0,34.5,29.38,ESE,119,17.5,29.9,53,0.00,CLR,,0.03,WeatherDisplay:10.37,2013-10-28 14:38:00,
2013-10-28 06:43:00,51.1,34.1,29.38,SE,126,18.5,31.1,52,0.00,CLR,,0.03,WeatherDisplay:10.37,2013-10-28 14:43:00,
2013-10-28 06:48:00,51.6,33.6,29.38,ESE,120,21.8,28.8,50,0.00,CLR,,0.03,WeatherDisplay:10.37,2013-10-28 14:48:00,
2013-10-28 06:53:00,51.7,33.6,29.38,ESE,116,18.9,24.2,50,0.00,CLR,,0.03,WeatherDisplay:10.37,2013-10-28 14:53:00,
2013-10-28 06:58:00,51.8,33.7,29.38,SE,126,17.7,26.9,50,0.00,CLR,,0.03,WeatherDisplay:10.37,2013-10-28 14:58:00,
2013-10-28 07:03:00,51.7,34.6,29.37,ESE,114,10.8,20.7,52,0.00,CLR,,0.03,WeatherDisplay:10.37,2013-10-28 15:03:00,
2013-10-28 07:08:00,51.5,34.4,29.38,East,90,9.7,13.8,52,0.00,CLR,,0.03,WeatherDisplay:10.37,2013-10-28 15:08:00,
2013-10-28 07:13:00,51.7,34.1,29.39,SE,137,6.7,10.4,51,0.00,CLR,,0.03,WeatherDisplay:10.37,2013-10-28 15:13:00,
2013-10-28 07:18:00,50.6,34.6,29.39,WSW,241,3.7,9.2,54,0.00,CLR,,0.03,WeatherDisplay:10.37,2013-10-28 15:18:00,
2013-10-28 07:23:00,47.1,33.1,29.38,WNW,292,16.1,18.4,58,0.00,CLR,,0.03,WeatherDisplay:10.37,2013-10-28 15:23:00,
2013-10-28 07:28:00,46.4,33.7,29.39,WNW,284,10.8,15.0,61,0.00,CLR,,0.03,WeatherDisplay:10.37,2013-10-28 15:28:00,
2013-10-28 07:33:00,45.5,33.2,29.39,WNW,287,12.4,18.2,62,0.00,CLR,,0.03,WeatherDisplay:10.37,2013-10-28 15:33:00,
2013-10-28 07:38:00,44.1,33.5,29.39,West,275,17.0,23.0,66,0.00,CLR,,0.03,WeatherDisplay:10.37,2013-10-28 15:38:00,
2013-10-28 07:43:00,43.5,33.3,29.39,WNW,289,10.2,16.8,67,0.00,CLR,,0.03,WeatherDisplay:10.37,2013-10-28 15:43:00,
2013-10-28 07:48:00,43.0,33.5,29.38,WNW,301,12.6,15.2,69,0.00,CLR,,0.03,WeatherDisplay:10.37,2013-10-28 15:48:00,
2013-10-28 07:53:00,42.6,33.5,29.37,WNW,302,11.9,17.3,70,0.00,CLR,,0.03,WeatherDisplay:10.37,2013-10-28 15:53:00,
2013-10-28 07:58:00,42.2,33.5,29.36,NNW,335,12.0,16.1,71,0.00,CLR,,0.03,WeatherDisplay:10.37,2013-10-28 15:58:00,
2013-10-28 08:03:00,42.1,33.7,29.36,WNW,288,9.4,11.5,72,0.00,CLR,,0.03,WeatherDisplay:10.37,2013-10-28 16:03:00,
2013-10-28 08:09:00,42.0,33.6,29.35,WNW,301,10.5,12.7,72,0.00,CLR,,0.03,WeatherDisplay:10.37,2013-10-28 16:09:00,
2013-10-28 08:14:00,41.8,33.4,29.35,West,281,8.6,10.4,72,0.00,CLR,,0.03,WeatherDisplay:10.37,2013-10-28 16:14:00,
2013-10-28 08:19:00,41.8,33.8,29.36,West,274,5.4,11.7,73,0.00,CLR,,0.03,WeatherDisplay:10.37,2013-10-28 16:19:00,
2013-10-28 08:24:00,41.7,33.7,29.35,WNW,288,8.0,11.5,73,0.00,CLR,,0.03,WeatherDisplay:10.37,2013-10-28 16:24:00,
2013-10-28 08:29:00,41.6,33.6,29.36,West,275,11.2,13.8,73,0.00,CLR,,0.03,WeatherDisplay:10.37,2013-10-28 16:29:00,
2013-10-28 08:34:00,41.5,33.5,29.36,West,270,11.0,15.0,73,0.00,CLR,,0.03,WeatherDisplay:10.37,2013-10-28 16:34:00,
2013-10-28 08:39:00,41.4,33.7,29.35,West,272,8.9,12.7,74,0.00,CLR,,0.03,WeatherDisplay:10.37,2013-10-28 16:39:00,
2013-10-28 08:44:00,41.5,33.8,29.35,West,277,10.3,13.8,74,0.00,CLR,,0.03,WeatherDisplay:10.37,2013-10-28 16:44:00,
2013-10-28 08:49:00,41.1,33.4,29.34,WNW,282,9.4,13.8,74,0.00,CLR,,0.03,WeatherDisplay:10.37,2013-10-28 16:49:00,
2013-10-28 08:54:00,41.0,33.3,29.33,WNW,299,8.7,11.5,74,0.00,CLR,,0.03,WeatherDisplay:10.37,2013-10-28 16:54:00,
2013-10-28 08:59:00,40.7,33.4,29.33,NW,305,8.8,11.5,75,0.00,CLR,,0.03,WeatherDisplay:10.37,2013-10-28 16:59:00,
2013-10-28 09:04:00,40.7,33.4,29.33,WSW,254,9.1,11.5,75,0.00,CLR,,0.03,WeatherDisplay:10.37,2013-10-28 17:04:00,
2013-10-28 09:09:00,40.7,33.4,29.32,WNW,282,10.4,12.7,75,0.00,CLR,,0.03,WeatherDisplay:10.37,2013-10-28 17:09:00,
2013-10-28 09:14:00,40.7,33.4,29.31,NW,309,8.6,11.5,75,0.00,CLR,,0.03,WeatherDisplay:10.37,2013-10-28 17:14:00,
2013-10-28 09:19:00,40.8,33.5,29.31,West,278,10.4,12.7,75,0.00,CLR,,0.03,WeatherDisplay:10.37,2013-10-28 17:19:00,
2013-10-28 09:24:00,40.8,33.5,29.31,WNW,301,7.1,8.1,75,0.00,CLR,,0.03,WeatherDisplay:10.37,2013-10-28 17:24:00,
2013-10-28 09:29:00,40.7,33.4,29.31,WNW,296,8.3,10.4,75,0.00,CLR,,0.03,WeatherDisplay:10.37,2013-10-28 17:29:00,
2013-10-28 09:34:00,40.8,33.5,29.31,WNW,295,7.1,8.1,75,0.00,CLR,,0.03,WeatherDisplay:10.37,2013-10-28 17:34:00,
2013-10-28 09:39:00,40.8,33.5,29.31,NW,311,7.9,10.4,75,0.00,CLR,,0.03,WeatherDisplay:10.37,2013-10-28 17:39:00,
2013-10-28 09:44:00,40.7,33.4,29.30,WNW,284,8.3,10.4,75,0.00,CLR,,0.03,WeatherDisplay:10.37,2013-10-28 17:44:00,
2013-10-28 09:49:00,40.8,33.5,29.30,WNW,289,8.1,9.2,75,0.00,CLR,,0.03,WeatherDisplay:10.37,2013-10-28 17:49:00,
2013-10-28 09:54:00,40.8,33.5,29.30,West,272,9.0,10.4,75,0.00,CLR,,0.03,WeatherDisplay:10.37,2013-10-28 17:54:00,
2013-10-28 09:59:00,40.7,33.4,29.29,WNW,291,9.7,11.5,75,0.00,CLR,,0.03,WeatherDisplay:10.37,2013-10-28 17:59:00,
2013-10-28 10:04:00,40.7,33.7,29.30,NW,313,4.2,6.9,76,0.00,CLR,,0.03,WeatherDisplay:10.37,2013-10-28 18:04:00,
2013-10-28 10:09:00,40.7,33.7,29.29,West,280,9.0,10.4,76,0.00,CLR,,0.03,WeatherDisplay:10.37,2013-10-28 18:09:00,
2013-10-28 10:14:00,40.7,33.7,29.30,WNW,288,6.2,8.1,76,0.00,CLR,,0.03,WeatherDisplay:10.37,2013-10-28 18:14:00,
2013-10-28 10:19:00,40.9,33.9,29.30,WNW,298,4.8,5.8,76,0.00,CLR,,0.03,WeatherDisplay:10.37,2013-10-28 18:19:00,
2013-10-28 10:24:00,40.8,33.8,29.29,NW,312,6.4,6.9,76,0.00,CLR,,0.03,WeatherDisplay:10.37,2013-10-28 18:24:00,
2013-10-28 10:29:00,40.8,33.8,29.29,WNW,301,4.6,5.5,76,0.00,CLR,,0.03,WeatherDisplay:10.37,2013-10-28 18:29:00,
2013-10-28 10:34:00,40.8,33.8,29.30,West,264,0.0,0.0,76,0.00,CLR,,0.03,WeatherDisplay:10.37,2013-10-28 18:34:00,
2013-10-28 10:39:00,41.0,34.3,29.29,NW,325,2.7,4.6,77,0.00,CLR,,0.03,WeatherDisplay:10.37,2013-10-28 18:39:00,
2013-10-28 10:44:00,41.1,34.1,29.29,NW,325,0.0,0.0,76,0.00,CLR,,0.10,WeatherDisplay:10.37,2013-10-28 18:44:00,
2013-10-28 10:49:00,41.1,34.1,29.29,NW,325,0.0,0.0,76,0.07,RA,,0.10,WeatherDisplay:10.37,2013-10-28 18:49:00,
2013-10-28 10:54:00,41.1,34.4,29.28,NW,325,0.0,0.0,77,0.07,RA,,0.10,WeatherDisplay:10.37,2013-10-28 18:54:00,
2013-10-28 10:59:00,41.2,34.5,29.27,ENE,71,0.6,5.7,77,0.07,CLR,,0.10,WeatherDisplay:10.37,2013-10-28 18:59:00,
2013-10-28 11:04:00,41.1,34.4,29.27,NE,48,5.3,6.9,77,0.07,CLR,,0.10,WeatherDisplay:10.37,2013-10-28 19:04:00,
2013-10-28 11:09:00,41.1,34.4,29.27,East,82,10.0,10.4,77,0.07,CLR,,0.10,WeatherDisplay:10.37,2013-10-28 19:09:00,
2013-10-28 11:14:00,41.3,34.6,29.27,ESE,123,9.6,15.0,77,0.07,CLR,,0.10,WeatherDisplay:10.37,2013-10-28 19:14:00,
2013-10-28 11:19:00,41.4,34.7,29.26,ESE,106,10.4,11.6,77,0.07,CLR,,0.10,WeatherDisplay:10.37,2013-10-28 19:19:00,
2013-10-28 11:24:00,41.4,34.7,29.26,ESE,103,11.3,12.1,77,0.07,CLR,,0.10,WeatherDisplay:10.37,2013-10-28 19:24:00,
2013-10-28 11:29:00,41.6,34.9,29.25,ESE,120,12.7,17.3,77,0.07,CLR,,0.10,WeatherDisplay:10.37,2013-10-28 19:29:00,
2013-10-28 11:34:00,41.9,35.2,29.25,East,93,12.9,17.3,77,0.07,CLR,,0.10,WeatherDisplay:10.37,2013-10-28 19:34:00,
2013-10-28 11:39:00,42.2,35.5,29.24,East,95,12.5,16.1,77,0.07,CLR,,0.10,WeatherDisplay:10.37,2013-10-28 19:39:00,
2013-10-28 11:44:00,42.6,35.9,29.24,East,99,10.6,13.8,77,0.07,CLR,,0.10,WeatherDisplay:10.37,2013-10-28 19:44:00,
2013-10-28 11:49:00,42.5,35.8,29.24,SE,124,11.4,12.7,77,0.00,CLR,,0.10,WeatherDisplay:10.37,2013-10-28 19:49:00,
2013-10-28 11:54:00,42.7,36.0,29.24,ESE,112,9.5,13.9,77,0.00,CLR,,0.10,WeatherDisplay:10.37,2013-10-28 19:54:00,
2013-10-28 11:59:00,43.1,36.4,29.24,ESE,106,10.8,13.8,77,0.00,CLR,,0.10,WeatherDisplay:10.37,2013-10-28 19:59:00,
2013-10-28 12:04:00,42.7,36.0,29.24,East,86,9.5,13.8,77,0.00,CLR,,0.10,WeatherDisplay:10.37,2013-10-28 20:04:00,
2013-10-28 12:09:00,42.8,36.1,29.24,East,92,8.8,15.0,77,0.00,CLR,,0.10,WeatherDisplay:10.37,2013-10-28 20:09:00,
2013-10-28 12:14:00,42.8,36.1,29.23,SE,133,9.3,12.7,77,0.00,CLR,,0.10,WeatherDisplay:10.37,2013-10-28 20:14:00,
2013-10-28 12:19:00,43.0,36.3,29.24,SE,138,9.2,13.8,77,0.00,CLR,,0.10,WeatherDisplay:10.37,2013-10-28 20:19:00,
2013-10-28 12:24:00,43.3,36.6,29.23,ESE,117,10.8,16.0,77,0.00,CLR,,0.10,WeatherDisplay:10.37,2013-10-28 20:24:00,
2013-10-28 12:29:00,43.2,36.5,29.23,SE,144,9.3,11.5,77,0.00,CLR,,0.10,WeatherDisplay:10.37,2013-10-28 20:29:00,
2013-10-28 12:34:00,43.3,36.6,29.23,SE,128,9.2,11.5,77,0.00,CLR,,0.10,WeatherDisplay:10.37,2013-10-28 20:34:00,
2013-10-28 12:39:00,43.3,36.6,29.23,SE,136,8.1,11.5,77,0.00,CLR,,0.10,WeatherDisplay:10.37,2013-10-28 20:39:00,
2013-10-28 12:44:00,43.2,36.5,29.22,SSE,148,8.8,11.5,77,0.00,CLR,,0.10,WeatherDisplay:10.37,2013-10-28 20:44:00,
2013-10-28 12:49:00,43.0,36.3,29.22,ESE,121,8.5,12.7,77,0.00,CLR,,0.10,WeatherDisplay:10.37,2013-10-28 20:49:00,
2013-10-28 12:54:00,43.1,36.4,29.22,ESE,109,11.9,15.0,77,0.00,CLR,,0.10,WeatherDisplay:10.37,2013-10-28 20:54:00,
2013-10-28 12:59:00,43.5,36.8,29.21,ESE,102,12.8,12.8,77,0.00,CLR,,0.10,WeatherDisplay:10.37,2013-10-28 20:59:00,
2013-10-28 13:04:00,43.5,36.8,29.20,ENE,65,10.7,12.7,77,0.00,CLR,,0.10,WeatherDisplay:10.37,2013-10-28 21:04:00,
2013-10-28 13:09:00,43.2,36.5,29.19,ENE,78,13.5,15.2,77,0.00,CLR,,0.10,WeatherDisplay:10.37,2013-10-28 21:09:00,
2013-10-28 13:14:00,43.7,37.0,29.19,ESE,116,11.2,18.4,77,0.00,CLR,,0.10,WeatherDisplay:10.37,2013-10-28 21:14:00,
2013-10-28 13:19:00,43.9,37.2,29.19,East,86,11.8,13.8,77,0.00,CLR,,0.10,WeatherDisplay:10.37,2013-10-28 21:19:00,
2013-10-28 13:24:00,43.4,36.7,29.20,SE,141,8.2,11.5,77,0.00,CLR,,0.10,WeatherDisplay:10.37,2013-10-28 21:24:00,
2013-10-28 13:29:00,43.6,36.9,29.20,SE,144,5.9,10.3,77,0.00,CLR,,0.10,WeatherDisplay:10.37,2013-10-28 21:29:00,
2013-10-28 13:34:00,43.6,36.9,29.20,SE,140,7.0,10.4,77,0.00,CLR,,0.10,WeatherDisplay:10.37,2013-10-28 21:34:00,
2013-10-28 13:39:00,43.4,36.7,29.21,SSE,155,5.7,9.2,77,0.00,CLR,,0.10,WeatherDisplay:10.37,2013-10-28 21:39:00,
2013-10-28 13:44:00,43.4,36.7,29.22,South,182,5.6,6.9,77,0.00,CLR,,0.10,WeatherDisplay:10.37,2013-10-28 21:44:00,
2013-10-28 13:49:00,43.2,36.5,29.22,SSE,154,7.2,8.1,77,0.00,CLR,,0.10,WeatherDisplay:10.37,2013-10-28 21:49:00,
2013-10-28 13:54:00,43.4,36.7,29.22,SSE,151,3.5,4.6,77,0.00,CLR,,0.10,WeatherDisplay:10.37,2013-10-28 21:54:00,
2013-10-28 14:00:00,43.3,36.6,29.23,South,178,3.2,5.8,77,0.00,CLR,,0.10,WeatherDisplay:10.37,2013-10-28 22:00:00,
2013-10-28 14:05:00,42.9,36.2,29.23,South,188,0.0,0.0,77,0.00,CLR,,0.10,WeatherDisplay:10.37,2013-10-28 22:05:00,
2013-10-28 14:10:00,43.2,36.5,29.24,SW,233,4.5,8.1,77,0.00,CLR,,0.10,WeatherDisplay:10.37,2013-10-28 22:10:00,
2013-10-28 14:15:00,43.3,36.6,29.24,WSW,243,7.0,10.4,77,0.00,CLR,,0.10,WeatherDisplay:10.37,2013-10-28 22:15:00,
2013-10-28 14:20:00,43.0,36.3,29.25,WSW,246,8.3,10.4,77,0.00,CLR,,0.10,WeatherDisplay:10.37,2013-10-28 22:20:00,
2013-10-28 14:25:00,42.9,36.2,29.25,WSW,241,5.6,6.9,77,0.00,CLR,,0.10,WeatherDisplay:10.37,2013-10-28 22:25:00,
2013-10-28 14:30:00,43.0,36.6,29.25,West,261,5.5,8.1,78,0.00,CLR,,0.10,WeatherDisplay:10.37,2013-10-28 22:30:00,
2013-10-28 14:35:00,43.2,36.8,29.26,WSW,237,12.9,20.7,78,0.00,CLR,,0.10,WeatherDisplay:10.37,2013-10-28 22:35:00,
2013-10-28 14:40:00,42.9,36.2,29.26,WSW,256,21.8,25.3,77,0.00,CLR,,0.10,WeatherDisplay:10.37,2013-10-28 22:40:00,
2013-10-28 14:45:00,43.0,36.3,29.26,WSW,258,13.1,18.4,77,0.00,CLR,,0.10,WeatherDisplay:10.37,2013-10-28 22:45:00,
2013-10-28 14:50:00,42.7,36.0,29.26,WSW,237,16.6,26.4,77,0.00,CLR,,0.10,WeatherDisplay:10.37,2013-10-28 22:50:00,
2013-10-28 14:55:00,42.4,35.7,29.27,WSW,237,11.0,18.4,77,0.00,CLR,,0.10,WeatherDisplay:10.37,2013-10-28 22:55:00,
2013-10-28 15:00:00,42.5,35.8,29.26,SW,217,7.3,11.5,77,0.00,CLR,,0.10,WeatherDisplay:10.37,2013-10-28 23:00:00,
2013-10-28 15:05:00,42.6,35.9,29.26,SW,219,9.8,17.3,77,0.00,CLR,,0.10,WeatherDisplay:10.37,2013-10-28 23:05:00,
2013-10-28 15:10:00,42.4,35.7,29.26,SSW,205,12.6,20.7,77,0.00,CLR,,0.10,WeatherDisplay:10.37,2013-10-28 23:10:00,
2013-10-28 15:15:00,42.3,35.6,29.26,SW,236,8.8,12.3,77,0.00,CLR,,0.10,WeatherDisplay:10.37,2013-10-28 23:15:00,
2013-10-28 15:20:00,42.4,35.7,29.26,SSW,206,9.5,18.4,77,0.00,CLR,,0.10,WeatherDisplay:10.37,2013-10-28 23:20:00,
2013-10-28 15:25:00,42.3,35.6,29.26,SSW,209,10.7,17.3,77,0.00,CLR,,0.10,WeatherDisplay:10.37,2013-10-28 23:25:00,
2013-10-28 15:30:00,42.5,35.8,29.27,South,181,8.1,20.7,77,0.00,CLR,,0.10,WeatherDisplay:10.37,2013-10-28 23:30:00,
2013-10-28 15:35:00,42.3,35.6,29.26,SSE,151,14.6,20.7,77,0.00,CLR,,0.10,WeatherDisplay:10.37,2013-10-28 23:35:00,
2013-10-28 15:40:00,42.3,35.6,29.27,SW,224,15.2,28.8,77,0.00,CLR,,0.10,WeatherDisplay:10.37,2013-10-28 23:40:00,
2013-10-28 15:45:00,42.3,35.6,29.28,SW,215,15.1,20.7,77,0.00,CLR,,0.10,WeatherDisplay:10.37,2013-10-28 23:45:00,
2013-10-28 15:50:00,42.2,35.5,29.28,SSW,212,15.8,25.3,77,0.00,CLR,,0.10,WeatherDisplay:10.37,2013-10-28 23:50:00,
2013-10-28 15:55:00,42.2,35.5,29.28,South,179,13.7,17.3,77,0.00,CLR,,0.10,WeatherDisplay:10.37,2013-10-28 23:55:00,
2013-10-28 16:00:00,42.3,35.3,29.28,SW,230,14.1,20.7,76,0.00,CLR,,0.10,WeatherDisplay:10.37,2013-10-29 00:00:00,
2013-10-28 16:05:00,42.3,35.3,29.28,SSW,208,11.5,17.8,76,0.00,CLR,,0.10,WeatherDisplay:10.37,2013-10-29 00:05:00,
2013-10-28 16:10:00,42.3,35.3,29.28,SW,232,13.5,18.4,76,0.00,CLR,,0.10,WeatherDisplay:10.37,2013-10-29 00:10:00,
2013-10-28 16:15:00,42.5,35.5,29.28,South,175,12.4,20.7,76,0.00,CLR,,0.10,WeatherDisplay:10.37,2013-10-29 00:15:00,
2013-10-28 16:20:00,42.2,35.2,29.28,SSW,193,9.7,19.6,76,0.00,CLR,,0.10,WeatherDisplay:10.37,2013-10-29 00:20:00,
2013-10-28 16:25:00,42.3,35.3,29.29,South,169,13.0,16.1,76,0.00,CLR,,0.10,WeatherDisplay:10.37,2013-10-29 00:25:00,
2013-10-28 16:30:00,42.4,35.4,29.30,WSW,239,9.1,11.5,76,0.00,CLR,,0.10,WeatherDisplay:10.37,2013-10-29 00:30:00,
2013-10-28 16:35:00,42.2,35.2,29.30,SSW,212,10.6,19.6,76,0.00,CLR,,0.10,WeatherDisplay:10.37,2013-10-29 00:35:00,
2013-10-28 16:40:00,42.3,35.3,29.29,South,188,13.4,17.0,76,0.00,CLR,,0.10,WeatherDisplay:10.37,2013-10-29 00:40:00,
2013-10-28 16:45:00,42.2,35.2,29.29,South,175,9.9,18.4,76,0.00,CLR,,0.10,WeatherDisplay:10.37,2013-10-29 00:45:00,
2013-10-28 16:50:00,42.3,35.3,29.30,South,184,9.2,16.1,76,0.00,CLR,,0.10,WeatherDisplay:10.37,2013-10-29 00:50:00,
2013-10-28 16:55:00,42.5,35.5,29.30,SSE,164,8.0,15.0,76,0.00,CLR,,0.10,WeatherDisplay:10.37,2013-10-29 00:55:00,
2013-10-28 17:00:00,42.2,35.2,29.30,South,169,9.8,13.4,76,0.00,CLR,,0.10,WeatherDisplay:10.37,2013-10-29 01:00:00,
2013-10-28 17:05:00,42.3,35.3,29.30,South,185,7.8,12.7,76,0.00,CLR,,0.10,WeatherDisplay:10.37,2013-10-29 01:05:00,
2013-10-28 17:10:00,42.3,35.3,29.30,SSW,210,5.1,8.1,76,0.00,CLR,,0.10,WeatherDisplay:10.37,2013-10-29 01:10:00,
2013-10-28 17:15:00,42.3,35.3,29.30,SSW,209,5.8,10.4,76,0.00,CLR,,0.10,WeatherDisplay:10.37,2013-10-29 01:15:00,
2013-10-28 17:20:00,42.5,35.5,29.30,SSW,213,7.2,9.2,76,0.00,CLR,,0.10,WeatherDisplay:10.37,2013-10-29 01:20:00,
2013-10-28 17:25:00,42.4,35.4,29.30,SW,233,7.7,10.4,76,0.00,CLR,,0.10,WeatherDisplay:10.37,2013-10-29 01:25:00,
2013-10-28 17:30:00,42.5,35.5,29.30,SSW,193,7.4,9.2,76,0.00,CLR,,0.10,WeatherDisplay:10.37,2013-10-29 01:30:00,
2013-10-28 17:35:00,42.4,35.4,29.31,SW,219,6.3,9.2,76,0.00,CLR,,0.10,WeatherDisplay:10.37,2013-10-29 01:35:00,
2013-10-28 17:40:00,42.3,35.3,29.31,SW,226,6.6,10.4,76,0.00,CLR,,0.10,WeatherDisplay:10.37,2013-10-29 01:40:00,
2013-10-28 17:45:00,42.2,35.2,29.31,WSW,237,7.1,10.5,76,0.00,CLR,,0.10,WeatherDisplay:10.37,2013-10-29 01:45:00,
2013-10-28 17:50:00,42.0,35.0,29.31,SW,224,7.3,10.4,76,0.00,CLR,,0.10,WeatherDisplay:10.37,2013-10-29 01:50:00,
2013-10-28 17:55:00,42.2,35.2,29.31,SSW,210,8.2,9.2,76,0.00,CLR,,0.10,WeatherDisplay:10.37,2013-10-29 01:55:00,
2013-10-28 18:00:00,42.2,35.2,29.31,SSW,200,5.5,8.1,76,0.00,CLR,,0.10,WeatherDisplay:10.37,2013-10-29 02:00:00,
2013-10-28 18:05:00,42.1,35.1,29.31,SW,224,5.9,9.1,76,0.00,CLR,,0.10,WeatherDisplay:10.37,2013-10-29 02:05:00,
2013-10-28 18:10:00,41.9,34.9,29.31,WSW,248,6.8,10.4,76,0.00,CLR,,0.10,WeatherDisplay:10.37,2013-10-29 02:10:00,
2013-10-28 18:15:00,41.9,34.9,29.31,WSW,239,7.6,9.2,76,0.00,CLR,,0.10,WeatherDisplay:10.37,2013-10-29 02:15:00,
2013-10-28 18:20:00,41.7,34.7,29.31,SW,232,5.8,9.5,76,0.00,CLR,,0.10,WeatherDisplay:10.37,2013-10-29 02:20:00,
2013-10-28 18:25:00,41.8,34.8,29.32,SSW,208,7.0,11.5,76,0.00,CLR,,0.10,WeatherDisplay:10.37,2013-10-29 02:25:00,
2013-10-28 18:30:00,41.7,34.7,29.32,SW,220,5.4,11.5,76,0.00,CLR,,0.10,WeatherDisplay:10.37,2013-10-29 02:30:00,
2013-10-28 18:35:00,41.5,34.5,29.32,SW,233,7.3,10.6,76,0.00,CLR,,0.10,WeatherDisplay:10.37,2013-10-29 02:35:00,
2013-10-28 18:40:00,41.3,34.3,29.32,SSW,202,8.0,15.0,76,0.00,CLR,,0.10,WeatherDisplay:10.37,2013-10-29 02:40:00,
2013-10-28 18:45:00,41.3,34.3,29.32,South,191,8.5,9.3,76,0.00,CLR,,0.10,WeatherDisplay:10.37,2013-10-29 02:45:00,
2013-10-28 18:50:00,41.0,34.0,29.32,SSW,192,7.7,14.2,76,0.00,CLR,,0.10,WeatherDisplay:10.37,2013-10-29 02:50:00,
2013-10-28 18:55:00,41.0,34.0,29.31,South,186,7.1,9.2,76,0.00,CLR,,0.10,WeatherDisplay:10.37,2013-10-29 02:55:00,
2013-10-28 19:00:00,40.9,33.9,29.32,South,174,8.3,11.5,76,0.00,CLR,,0.10,WeatherDisplay:10.37,2013-10-29 03:00:00,
2013-10-28 19:06:00,40.9,33.9,29.32,SSW,202,6.9,12.4,76,0.00,CLR,,0.10,WeatherDisplay:10.37,2013-10-29 03:06:00,
2013-10-28 19:11:00,40.9,33.9,29.32,SSW,200,7.1,9.2,76,0.00,CLR,,0.10,WeatherDisplay:10.37,2013-10-29 03:11:00,
2013-10-28 19:16:00,40.9,33.9,29.33,South,172,5.4,8.1,76,0.00,CLR,,0.10,WeatherDisplay:10.37,2013-10-29 03:16:00,
2013-10-28 19:21:00,40.9,33.6,29.33,SSE,160,6.0,6.9,75,0.00,CLR,,0.10,WeatherDisplay:10.37,2013-10-29 03:21:00,
2013-10-28 19:26:00,40.9,33.6,29.33,SSE,168,4.5,5.8,75,0.00,CLR,,0.10,WeatherDisplay:10.37,2013-10-29 03:26:00,
2013-10-28 19:31:00,40.8,33.8,29.33,South,179,4.5,6.9,76,0.00,CLR,,0.10,WeatherDisplay:10.37,2013-10-29 03:31:00,
2013-10-28 19:36:00,40.7,33.7,29.33,South,169,3.3,5.8,76,0.00,CLR,,0.10,WeatherDisplay:10.37,2013-10-29 03:36:00,
2013-10-28 19:41:00,40.7,33.7,29.33,South,191,6.1,8.2,76,0.00,CLR,,0.10,WeatherDisplay:10.37,2013-10-29 03:41:00,
2013-10-28 19:46:00,40.7,33.7,29.33,SSW,203,8.0,9.2,76,0.00,CLR,,0.10,WeatherDisplay:10.37,2013-10-29 03:46:00,
2013-10-28 19:51:00,40.7,33.7,29.33,South,188,6.0,8.1,76,0.00,CLR,,0.10,WeatherDisplay:10.37,2013-10-29 03:51:00,
2013-10-28 19:56:00,40.7,33.7,29.33,SSW,202,4.2,8.1,76,0.00,CLR,,0.10,WeatherDisplay:10.37,2013-10-29 03:56:00,
2013-10-28 20:01:00,40.6,33.6,29.33,WSW,239,3.7,5.8,76,0.00,CLR,,0.10,WeatherDisplay:10.37,2013-10-29 04:01:00,
2013-10-28 20:02:00,40.5,33.5,29.33,WSW,240,5.9,6.9,76,0.00,CLR,,0.10,WeatherDisplay:10.37,2013-10-29 04:02:00,
2013-10-28 20:07:00,40.4,33.4,29.33,WSW,241,6.0,7.8,76,0.00,CLR,,0.10,WeatherDisplay:10.37,2013-10-29 04:07:00,
2013-10-28 20:12:00,40.2,33.2,29.34,WSW,247,11.1,15.0,76,0.00,CLR,,0.10,WeatherDisplay:10.37,2013-10-29 04:12:00,
2013-10-28 20:17:00,40.1,33.1,29.34,SW,232,7.7,9.8,76,0.00,CLR,,0.10,WeatherDisplay:10.37,2013-10-29 04:17:00,
2013-10-28 20:22:00,40.1,33.1,29.34,SSW,203,6.5,9.2,76,0.00,CLR,,0.10,WeatherDisplay:10.37,2013-10-29 04:22:00,
2013-10-28 20:27:00,40.1,33.1,29.34,WSW,237,8.8,13.8,76,0.00,CLR,,0.10,WeatherDisplay:10.37,2013-10-29 04:27:00,
2013-10-28 20:32:00,40.2,33.2,29.35,South,172,5.6,9.2,76,0.00,CLR,,0.10,WeatherDisplay:10.37,2013-10-29 04:32:00,
2013-10-28 20:37:00,40.4,33.4,29.35,SE,145,6.7,7.0,76,0.00,CLR,,0.10,WeatherDisplay:10.37,2013-10-29 04:37:00,
2013-10-28 20:42:00,40.5,33.5,29.35,South,189,5.1,5.8,76,0.00,CLR,,0.10,WeatherDisplay:10.37,2013-10-29 04:42:00,
2013-10-28 20:47:00,40.6,33.6,29.35,SSW,199,0.0,0.0,76,0.00,CLR,,0.10,WeatherDisplay:10.37,2013-10-29 04:47:00,
2013-10-28 20:52:00,40.6,33.6,29.35,South,185,5.3,5.8,76,0.00,CLR,,0.10,WeatherDisplay:10.37,2013-10-29 04:52:00,
2013-10-28 20:57:00,40.6,33.6,29.35,South,185,2.0,6.1,76,0.00,CLR,,0.10,WeatherDisplay:10.37,2013-10-29 04:57:00,
2013-10-28 21:02:00,40.6,33.6,29.35,South,188,4.9,6.2,76,0.00,CLR,,0.10,WeatherDisplay:10.37,2013-10-29 05:02:00,
2013-10-28 21:07:00,40.6,33.6,29.36,SSE,161,5.4,6.1,76,0.00,CLR,,0.10,WeatherDisplay:10.37,2013-10-29 05:07:00,
2013-10-28 21:12:00,40.6,33.6,29.36,ESE,120,6.4,6.9,76,0.00,CLR,,0.10,WeatherDisplay:10.37,2013-10-29 05:12:00,
2013-10-28 21:17:00,40.6,33.6,29.36,SE,124,4.3,6.9,76,0.00,CLR,,0.10,WeatherDisplay:10.37,2013-10-29 05:17:00,
2013-10-28 21:22:00,40.5,33.5,29.36,SE,140,1.2,2.7,76,0.00,CLR,,0.10,WeatherDisplay:10.37,2013-10-29 05:22:00,
2013-10-28 21:27:00,40.5,33.5,29.36,SE,140,0.0,0.0,76,0.00,CLR,,0.10,WeatherDisplay:10.37,2013-10-29 05:27:00,
2013-10-28 21:32:00,40.4,33.4,29.36,SE,140,0.0,0.0,76,0.00,CLR,,0.10,WeatherDisplay:10.37,2013-10-29 05:32:00,
2013-10-28 21:37:00,40.3,33.3,29.36,SE,140,0.0,0.0,76,0.00,CLR,,0.10,WeatherDisplay:10.37,2013-10-29 05:37:00,
2013-10-28 21:42:00,40.3,33.3,29.37,SSE,165,0.0,0.0,76,0.00,CLR,,0.10,WeatherDisplay:10.37,2013-10-29 05:42:00,
2013-10-28 21:47:00,40.5,33.5,29.37,SSE,165,0.0,4.6,76,0.00,CLR,,0.10,WeatherDisplay:10.37,2013-10-29 05:47:00,
2013-10-28 21:52:00,40.5,33.5,29.37,SSE,165,0.0,0.0,76,0.00,CLR,,0.10,WeatherDisplay:10.37,2013-10-29 05:52:00,
2013-10-28 21:57:00,40.4,33.8,29.37,SSE,165,0.0,0.0,77,0.00,CLR,,0.10,WeatherDisplay:10.37,2013-10-29 05:57:00,
2013-10-28 22:02:00,40.4,33.8,29.37,SSE,165,0.0,0.0,77,0.00,CLR,,0.10,WeatherDisplay:10.37,2013-10-29 06:02:00,
2013-10-28 22:07:00,40.4,33.8,29.38,SSW,200,0.0,0.0,77,0.00,CLR,,0.10,WeatherDisplay:10.37,2013-10-29 06:07:00,
2013-10-28 22:12:00,40.3,33.7,29.38,South,191,1.9,4.6,77,0.00,CLR,,0.10,WeatherDisplay:10.37,2013-10-29 06:12:00,
2013-10-28 22:17:00,40.5,33.9,29.38,SSW,199,0.0,0.0,77,0.00,CLR,,0.10,WeatherDisplay:10.37,2013-10-29 06:17:00,
2013-10-28 22:22:00,40.5,33.9,29.38,SSE,161,1.5,5.8,77,0.00,CLR,,0.10,WeatherDisplay:10.37,2013-10-29 06:22:00,
2013-10-28 22:27:00,40.6,34.0,29.38,SSE,161,0.0,0.0,77,0.00,CLR,,0.10,WeatherDisplay:10.37,2013-10-29 06:27:00,
2013-10-28 22:32:00,40.5,33.9,29.38,SSE,161,0.0,0.0,77,0.00,CLR,,0.10,WeatherDisplay:10.37,2013-10-29 06:32:00,
2013-10-28 22:37:00,40.6,34.0,29.38,SSE,161,0.0,0.0,77,0.00,CLR,,0.10,WeatherDisplay:10.37,2013-10-29 06:37:00,
2013-10-28 22:42:00,40.5,33.9,29.38,SSE,161,0.0,0.0,77,0.00,CLR,,0.10,WeatherDisplay:10.37,2013-10-29 06:42:00,
2013-10-28 22:47:00,40.6,34.0,29.38,SSE,165,0.0,0.0,77,0.00,CLR,,0.10,WeatherDisplay:10.37,2013-10-29 06:47:00,
2013-10-28 22:52:00,40.5,33.9,29.38,South,179,3.6,10.4,77,0.00,CLR,,0.10,WeatherDisplay:10.37,2013-10-29 06:52:00,
2013-10-28 22:57:00,40.6,33.6,29.39,SSW,206,2.5,6.9,76,0.00,CLR,,0.10,WeatherDisplay:10.37,2013-10-29 06:57:00,
2013-10-28 23:02:00,40.7,33.7,29.39,WSW,251,1.6,4.6,76,0.00,CLR,,0.10,WeatherDisplay:10.37,2013-10-29 07:02:00,
2013-10-28 23:07:00,40.7,33.7,29.39,SW,234,8.8,16.9,76,0.00,CLR,,0.10,WeatherDisplay:10.37,2013-10-29 07:07:00,
2013-10-28 23:12:00,40.8,33.5,29.39,South,186,8.6,12.7,75,0.00,CLR,,0.10,WeatherDisplay:10.37,2013-10-29 07:12:00,
2013-10-28 23:17:00,40.9,33.6,29.39,South,191,6.2,9.2,75,0.00,CLR,,0.10,WeatherDisplay:10.37,2013-10-29 07:17:00,
2013-10-28 23:22:00,40.9,33.6,29.39,SSW,205,5.5,9.2,75,0.00,CLR,,0.10,WeatherDisplay:10.37,2013-10-29 07:22:00,
2013-10-28 23:27:00,40.8,33.5,29.40,SSW,203,5.5,6.9,75,0.00,CLR,,0.10,WeatherDisplay:10.37,2013-10-29 07:27:00,
2013-10-28 23:32:00,40.8,33.5,29.40,South,182,5.3,9.1,75,0.00,CLR,,0.10,WeatherDisplay:10.37,2013-10-29 07:32:00,
2013-10-28 23:37:00,40.7,33.4,29.40,SSW,200,6.8,9.2,75,0.00,CLR,,0.10,WeatherDisplay:10.37,2013-10-29 07:37:00,
2013-10-28 23:42:00,40.8,33.5,29.40,SW,222,5.3,8.1,75,0.00,CLR,,0.10,WeatherDisplay:10.37,2013-10-29 07:42:00,
2013-10-28 23:47:00,40.7,33.4,29.40,SSW,209,5.6,6.9,75,0.00,CLR,,0.10,WeatherDisplay:10.37,2013-10-29 07:47:00,
2013-10-28 23:52:00,40.6,33.3,29.41,SSE,164,4.4,6.9,75,0.00,CLR,,0.10,WeatherDisplay:10.37,2013-10-29 07:52:00,
2013-10-28 23:57:00,40.6,33.3,29.41,SW,224,6.7,9.2,75,0.00,CLR,,0.10,WeatherDisplay:10.37,2013-10-29 07:57:00,